createdAt,value
2023-03-16T00:02:08.658Z,7.10
2023-03-16T00:05:30.278Z,7.05
2023-03-16T00:08:52.138Z,7.06
2023-03-16T00:12:17.793Z,6.96
2023-03-16T00:15:39.389Z,6.82
2023-03-16T00:19:03.732Z,6.84
2023-03-16T00:22:29.994Z,6.65
2023-03-16T00:26:00.424Z,6.67
2023-03-16T00:29:22.741Z,6.65
2023-03-16T00:32:44.401Z,6.61
2023-03-16T00:36:11.917Z,6.44
2023-03-16T00:39:35.775Z,6.40
2023-03-16T00:43:00.051Z,6.34
2023-03-16T00:46:27.084Z,6.33
2023-03-16T00:49:48.674Z,6.37
2023-03-16T00:53:10.878Z,6.42
2023-03-16T00:56:34.632Z,6.33
2023-03-16T00:59:56.281Z,6.41
2023-03-16T01:03:17.989Z,6.37
2023-03-16T01:06:42.815Z,6.31
2023-03-16T01:10:08.086Z,6.34
2023-03-16T01:13:29.908Z,6.26
2023-03-16T01:16:51.960Z,6.17
2023-03-16T01:20:19.336Z,6.03
2023-03-16T01:23:44.351Z,5.90
2023-03-16T01:27:08.888Z,5.86
2023-03-16T01:30:30.537Z,5.88
2023-03-16T01:33:52.330Z,5.78
2023-03-16T01:37:13.967Z,5.68
2023-03-16T01:40:36.872Z,5.55
2023-03-16T01:43:58.615Z,5.40
2023-03-16T01:47:20.889Z,5.62
2023-03-16T01:50:45.634Z,5.54
2023-03-16T01:54:15.824Z,5.59
2023-03-16T01:57:42.601Z,5.54
2023-03-16T02:01:04.811Z,5.43
2023-03-16T02:04:26.360Z,5.23
2023-03-16T02:07:50.554Z,5.03
2023-03-16T02:11:18.031Z,5.13
2023-03-16T02:14:39.690Z,5.00
2023-03-16T02:18:03.963Z,4.90
2023-03-16T02:21:57.799Z,4.92
2023-03-16T02:25:21.153Z,5.14
2023-03-16T02:29:17.074Z,5.17
2023-03-16T02:32:40.627Z,5.17
2023-03-16T02:36:02.326Z,5.13
2023-03-16T02:39:24.470Z,5.20
2023-03-16T02:42:47.691Z,5.12
2023-03-16T02:46:10.943Z,5.01
2023-03-16T02:49:47.575Z,5.03
2023-03-16T02:53:09.119Z,4.96
2023-03-16T02:56:32.820Z,5.00
2023-03-16T02:59:54.451Z,4.93
2023-03-16T03:03:18.968Z,4.80
2023-03-16T03:06:41.756Z,4.75
2023-03-16T03:10:06.721Z,4.76
2023-03-16T03:13:32.022Z,4.79
2023-03-16T03:16:53.895Z,4.75
2023-03-16T03:20:19.761Z,4.79
2023-03-16T03:23:41.409Z,4.77
2023-03-16T03:27:08.644Z,4.93
2023-03-16T03:30:33.758Z,5.16
2023-03-16T03:33:55.330Z,5.00
2023-03-16T03:37:17.105Z,4.86
2023-03-16T03:40:38.729Z,4.75
2023-03-16T03:44:01.117Z,4.65
2023-03-16T03:47:25.478Z,4.64
2023-03-16T03:50:51.098Z,4.59
2023-03-16T03:54:12.646Z,4.59
2023-03-16T03:57:36.325Z,4.56
2023-03-16T04:00:57.887Z,4.47
2023-03-16T04:04:20.675Z,4.62
2023-03-16T04:07:42.260Z,4.59
2023-03-16T04:11:03.919Z,4.44
2023-03-16T04:14:25.477Z,4.40
2023-03-16T04:17:47.170Z,4.47
2023-03-16T04:21:16.716Z,4.48
2023-03-16T04:24:38.377Z,4.37
2023-03-16T04:27:59.930Z,4.51
2023-03-16T04:31:21.550Z,4.54
2023-03-16T04:34:43.883Z,4.41
2023-03-16T04:38:07.991Z,4.28
2023-03-16T04:41:29.766Z,4.25
2023-03-16T04:44:51.343Z,4.20
2023-03-16T04:48:14.477Z,4.07
2023-03-16T04:51:38.535Z,4.04
2023-03-16T04:55:00.110Z,3.94
2023-03-16T04:58:22.791Z,4.18
2023-03-16T05:01:48.913Z,4.34
2023-03-16T05:05:13.627Z,4.17
2023-03-16T05:08:37.885Z,3.94
2023-03-16T05:11:59.550Z,4.00
2023-03-16T05:15:21.366Z,4.06
2023-03-16T05:18:47.674Z,4.06
2023-03-16T05:22:09.451Z,4.11
2023-03-16T05:25:33.875Z,4.34
2023-03-16T05:28:55.497Z,4.48
2023-03-16T05:32:19.278Z,4.38
2023-03-16T05:35:43.330Z,4.42
2023-03-16T05:39:05.132Z,4.58
2023-03-16T05:42:29.510Z,4.90
2023-03-16T05:45:51.655Z,4.95
2023-03-16T05:49:13.330Z,5.07
2023-03-16T05:52:35.597Z,5.07
2023-03-16T05:56:02.045Z,5.17
2023-03-16T05:59:23.644Z,5.33
2023-03-16T06:02:49.682Z,5.55
2023-03-16T06:06:13.802Z,5.68
2023-03-16T06:09:40.216Z,5.92
2023-03-16T06:13:04.211Z,6.11
2023-03-16T06:16:28.741Z,6.31
2023-03-16T06:19:52.916Z,6.51
2023-03-16T06:23:14.867Z,6.63
2023-03-16T06:26:37.248Z,6.45
2023-03-16T06:30:01.551Z,6.65
2023-03-16T06:33:26.369Z,6.77
2023-03-16T06:36:50.438Z,7.37
2023-03-16T06:40:14.928Z,7.72
2023-03-16T06:43:36.925Z,8.07
2023-03-16T06:47:01.518Z,8.50
2023-03-16T06:50:25.680Z,9.05
2023-03-16T06:53:47.933Z,9.56
2023-03-16T06:57:11.698Z,9.80
2023-03-16T07:00:34.230Z,10.32
2023-03-16T07:03:58.313Z,10.80
2023-03-16T07:07:22.152Z,11.04
2023-03-16T07:10:46.281Z,11.48
2023-03-16T07:14:11.365Z,11.79
2023-03-16T07:17:33.098Z,11.38
2023-03-16T07:21:00.559Z,11.94
2023-03-16T07:24:22.839Z,12.28
2023-03-16T07:27:46.643Z,12.41
2023-03-16T07:31:09.516Z,12.82
2023-03-16T07:34:31.178Z,12.96
2023-03-16T07:37:52.781Z,12.83
2023-03-16T07:41:14.536Z,12.40
2023-03-16T07:44:38.620Z,12.30
2023-03-16T07:48:00.368Z,12.42
2023-03-16T07:51:24.295Z,12.92
2023-03-16T07:54:49.448Z,13.20
2023-03-16T07:58:11.242Z,13.10
2023-03-16T08:01:33.329Z,13.24
2023-03-16T08:04:57.232Z,13.31
2023-03-16T08:08:18.986Z,12.93
2023-03-16T08:11:41.678Z,12.89
2023-03-16T08:15:06.120Z,12.61
2023-03-16T08:18:30.276Z,12.92
2023-03-16T08:22:01.553Z,12.99
2023-03-16T08:25:23.668Z,12.83
2023-03-16T08:28:46.983Z,12.53
2023-03-16T08:32:09.033Z,13.30
2023-03-16T08:35:31.016Z,13.76
2023-03-16T08:39:06.091Z,13.45
2023-03-16T08:42:31.518Z,13.59
2023-03-16T08:45:53.934Z,13.36
2023-03-16T08:49:21.392Z,13.81
2023-03-16T08:52:43.504Z,13.64
2023-03-16T08:56:08.238Z,13.79
2023-03-16T08:59:30.774Z,12.95
2023-03-16T09:02:53.343Z,13.76
2023-03-16T09:06:17.070Z,13.47
2023-03-16T09:09:39.801Z,13.79
2023-03-16T09:13:01.423Z,14.36
2023-03-16T09:16:25.899Z,13.48
2023-03-16T09:19:51.635Z,13.55
2023-03-16T09:23:19.389Z,13.43
2023-03-16T09:26:44.020Z,13.85
2023-03-16T09:30:07.570Z,13.16
2023-03-16T09:33:32.101Z,13.71
2023-03-16T09:36:56.544Z,14.13
2023-03-16T09:40:22.957Z,14.78
2023-03-16T09:44:05.032Z,14.95
2023-03-16T09:47:30.354Z,14.85
2023-03-16T09:50:56.623Z,14.85
2023-03-16T09:54:51.001Z,15.09
2023-03-16T09:58:19.826Z,15.40
2023-03-16T10:01:53.328Z,15.58
2023-03-16T10:05:17.223Z,15.78
2023-03-16T10:08:43.945Z,16.28
2023-03-16T10:12:08.769Z,16.15
2023-03-16T10:15:35.852Z,16.50
2023-03-16T10:19:05.992Z,16.53
2023-03-16T10:22:37.431Z,16.09
2023-03-16T10:25:59.014Z,16.25
2023-03-16T10:29:20.592Z,16.34
2023-03-16T10:32:42.475Z,16.76
2023-03-16T10:36:19.742Z,16.84
2023-03-16T10:39:43.252Z,16.87
2023-03-16T10:43:07.004Z,17.21
2023-03-16T10:46:29.266Z,14.92
2023-03-16T10:49:58.039Z,16.21
2023-03-16T10:53:39.652Z,16.74
2023-03-16T11:01:38.177Z,14.84
2023-03-16T11:05:02.676Z,14.45
2023-03-16T11:08:27.385Z,16.28
2023-03-16T11:11:50.069Z,16.50
2023-03-16T11:15:32.600Z,15.93
2023-03-16T11:19:11.149Z,16.13
2023-03-16T11:22:33.313Z,17.36
2023-03-16T11:25:58.785Z,18.05
2023-03-16T11:29:36.579Z,18.44
2023-03-16T11:33:04.156Z,18.59
2023-03-16T11:36:36.218Z,17.87
2023-03-16T11:40:17.879Z,18.66
2023-03-16T11:43:51.964Z,18.89
2023-03-16T11:47:35.288Z,18.86
2023-03-16T11:51:22.752Z,18.95
2023-03-16T11:55:24.614Z,18.90
2023-03-16T11:59:04.833Z,18.90
2023-03-16T12:02:37.661Z,19.10
2023-03-16T12:06:23.342Z,18.75
2023-03-16T12:10:14.139Z,18.63
2023-03-16T12:14:01.419Z,18.69
2023-03-16T12:17:30.483Z,18.41
2023-03-16T12:21:02.498Z,18.05
2023-03-16T12:24:27.874Z,17.89
2023-03-16T12:27:54.458Z,18.08
2023-03-16T12:31:58.081Z,17.49
2023-03-16T12:35:41.434Z,17.03
2023-03-16T12:39:08.069Z,17.72
2023-03-16T12:42:52.441Z,18.00
2023-03-16T12:46:36.610Z,16.90
2023-03-16T12:50:07.161Z,17.32
2023-03-16T12:53:43.456Z,17.12
2023-03-16T12:57:08.085Z,17.31
2023-03-16T13:00:40.588Z,17.14
2023-03-16T13:04:09.215Z,16.34
2023-03-16T13:07:31.923Z,16.04
2023-03-16T13:11:10.839Z,15.84
2023-03-16T13:14:44.657Z,15.97
2023-03-16T13:18:09.979Z,16.28
2023-03-16T13:21:37.190Z,16.06
2023-03-16T13:25:25.680Z,15.93
2023-03-16T13:28:52.432Z,14.89
2023-03-16T13:32:19.599Z,15.54
2023-03-16T13:35:45.801Z,15.78
2023-03-16T13:39:29.085Z,15.78
2023-03-16T13:42:53.291Z,15.91
2023-03-16T13:46:21.439Z,15.54
2023-03-16T13:49:47.404Z,15.56
2023-03-16T13:53:40.527Z,15.37
2023-03-16T13:57:04.259Z,14.44
2023-03-16T14:00:32.421Z,14.74
2023-03-16T14:03:58.873Z,14.68
2023-03-16T14:07:24.818Z,14.77
2023-03-16T14:10:49.367Z,14.14
2023-03-16T14:14:24.436Z,13.93
2023-03-16T14:17:46.930Z,14.29
2023-03-16T14:21:14.068Z,14.10
2023-03-16T14:24:41.071Z,14.24
2023-03-16T14:28:07.639Z,14.57
2023-03-16T14:31:39.723Z,14.64
2023-03-16T14:35:21.992Z,14.98
2023-03-16T14:38:54.473Z,14.87
2023-03-16T14:42:28.778Z,14.58
2023-03-16T14:45:50.888Z,14.87
2023-03-16T14:49:18.689Z,14.74
2023-03-16T14:52:44.023Z,14.61
2023-03-16T14:56:11.248Z,14.44
2023-03-16T14:59:33.683Z,14.33
2023-03-16T15:03:03.316Z,14.26
2023-03-16T15:06:27.240Z,14.22
2023-03-16T15:09:53.814Z,14.41
2023-03-16T15:13:34.812Z,14.61
2023-03-16T15:16:59.444Z,14.89
2023-03-16T15:20:30.395Z,14.99
2023-03-16T15:23:54.866Z,15.23
2023-03-16T15:27:36.532Z,15.06
2023-03-16T15:31:03.707Z,15.10
2023-03-16T15:34:28.281Z,14.72
2023-03-16T15:37:52.458Z,14.44
2023-03-16T15:41:17.104Z,14.16
2023-03-16T15:44:38.776Z,14.16
2023-03-16T15:48:03.159Z,14.10
2023-03-16T15:51:30.536Z,14.01
2023-03-16T15:54:52.224Z,14.43
2023-03-16T15:58:27.691Z,14.14
2023-03-16T16:01:53.004Z,13.89
2023-03-16T16:05:17.388Z,13.57
2023-03-16T16:08:38.962Z,13.30
2023-03-16T16:12:01.052Z,13.13
2023-03-16T16:15:35.649Z,12.88
2023-03-16T16:18:58.653Z,12.75
2023-03-16T16:22:23.446Z,12.65
2023-03-16T16:25:46.604Z,12.52
2023-03-16T16:29:22.239Z,12.35
2023-03-16T16:32:43.989Z,12.41
2023-03-16T16:36:17.687Z,12.23
2023-03-16T16:39:39.346Z,11.98
2023-03-16T16:43:03.440Z,12.00
2023-03-16T16:46:28.556Z,11.90
2023-03-16T16:49:51.206Z,11.80
2023-03-16T16:53:20.944Z,11.58
2023-03-16T16:56:45.341Z,11.42
2023-03-16T17:00:18.410Z,11.43
2023-03-16T17:03:40.019Z,11.35
2023-03-16T17:07:04.133Z,11.55
2023-03-16T17:10:29.384Z,12.23
2023-03-16T17:13:52.801Z,12.75
2023-03-16T17:17:17.573Z,13.00
2023-03-16T17:20:39.858Z,12.59
2023-03-16T17:24:02.679Z,12.13
2023-03-16T17:27:31.438Z,11.70
2023-03-16T17:30:55.905Z,11.40
2023-03-16T17:34:23.453Z,11.12
2023-03-16T17:37:47.792Z,10.91
2023-03-16T17:41:30.138Z,10.74
2023-03-16T17:44:53.878Z,10.50
2023-03-16T17:48:18.128Z,10.46
2023-03-16T17:51:40.567Z,10.22
2023-03-16T17:55:04.538Z,9.91
2023-03-16T17:58:31.308Z,10.08
2023-03-16T18:01:52.948Z,10.19
2023-03-16T18:05:20.981Z,10.26
2023-03-16T18:08:46.739Z,10.73
2023-03-16T18:12:11.762Z,11.22
2023-03-16T18:15:36.679Z,11.04
2023-03-16T18:19:23.771Z,10.55
2023-03-16T18:22:45.649Z,10.12
2023-03-16T18:26:11.418Z,9.87
2023-03-16T18:29:35.270Z,9.61
2023-03-16T18:32:58.467Z,9.51
2023-03-16T18:36:26.567Z,9.25
2023-03-16T18:39:48.438Z,9.29
2023-03-16T18:43:15.147Z,9.12
2023-03-16T18:46:38.453Z,9.19
2023-03-16T18:50:04.870Z,8.95
2023-03-16T18:53:31.531Z,9.05
2023-03-16T18:56:55.210Z,8.93
2023-03-16T19:00:22.038Z,8.74
2023-03-16T19:03:44.507Z,8.92
2023-03-16T19:07:21.220Z,9.71
2023-03-16T19:10:52.913Z,10.41
2023-03-16T19:14:24.925Z,10.61
2023-03-16T19:17:49.106Z,10.49
2023-03-16T19:21:22.967Z,10.04
2023-03-16T19:24:52.514Z,9.71
2023-03-16T19:28:23.939Z,9.51
2023-03-16T19:31:46.042Z,9.40
2023-03-16T19:35:18.956Z,9.14
2023-03-16T19:38:41.223Z,8.85
2023-03-16T19:42:05.021Z,8.77
2023-03-16T19:45:33.973Z,8.68
2023-03-16T19:48:56.660Z,8.70
2023-03-16T19:52:18.311Z,8.40
2023-03-16T19:55:42.343Z,8.20
2023-03-16T19:59:04.008Z,8.19
2023-03-16T20:02:26.540Z,8.22
2023-03-16T20:05:50.670Z,8.51
2023-03-16T20:09:12.889Z,8.91
2023-03-16T20:12:41.460Z,9.46
2023-03-16T20:16:03.618Z,9.22
2023-03-16T20:19:25.280Z,8.72
2023-03-16T20:22:49.263Z,8.28
2023-03-16T20:26:33.526Z,8.02
2023-03-16T20:29:55.254Z,7.85
2023-03-16T20:33:23.769Z,7.63
2023-03-16T20:36:45.702Z,7.47
2023-03-16T20:40:07.441Z,7.40
2023-03-16T20:43:31.593Z,7.23
2023-03-16T20:46:53.239Z,7.24
2023-03-16T20:50:30.769Z,7.58
2023-03-16T20:53:52.591Z,7.78
2023-03-16T20:57:23.254Z,8.12
2023-03-16T21:00:45.732Z,8.25
2023-03-16T21:04:17.916Z,8.32
2023-03-16T21:07:41.842Z,8.22
2023-03-16T21:11:03.429Z,7.64
2023-03-16T21:14:27.453Z,7.16
2023-03-16T21:17:54.666Z,6.69
2023-03-16T21:21:18.484Z,6.33
2023-03-16T21:24:40.063Z,6.19
2023-03-16T21:28:05.257Z,6.07
2023-03-16T21:31:29.166Z,5.83
2023-03-16T21:34:53.971Z,5.62
2023-03-16T21:38:19.018Z,5.52
2023-03-16T21:41:40.723Z,5.71
2023-03-16T21:45:02.603Z,5.71
2023-03-16T21:48:32.496Z,5.69
2023-03-16T21:51:56.691Z,5.54
2023-03-16T21:55:24.503Z,5.59
2023-03-16T21:58:47.235Z,5.51
2023-03-16T22:02:29.189Z,5.16
2023-03-16T22:05:51.667Z,5.16
2023-03-16T22:09:22.556Z,5.04
2023-03-16T22:12:44.222Z,4.79
2023-03-16T22:16:16.436Z,4.76
2023-03-16T22:19:40.553Z,5.01
2023-03-16T22:23:02.979Z,4.66
2023-03-16T22:26:25.594Z,4.65
2023-03-16T22:29:51.384Z,4.64
2023-03-16T22:33:19.247Z,4.66
2023-03-16T22:36:41.654Z,4.69
2023-03-16T22:40:18.426Z,4.59
2023-03-16T22:43:45.081Z,4.45
2023-03-16T22:47:21.728Z,4.13
2023-03-16T22:50:47.161Z,4.34
2023-03-16T22:54:14.577Z,4.17
2023-03-16T22:57:36.178Z,3.89
2023-03-16T23:01:00.170Z,3.91
2023-03-16T23:04:25.885Z,4.01
2023-03-16T23:07:50.690Z,4.03
2023-03-16T23:11:34.191Z,4.06
2023-03-16T23:14:56.239Z,3.58
2023-03-16T23:18:26.479Z,3.54
2023-03-16T23:21:49.023Z,3.70
2023-03-16T23:25:11.109Z,3.72
2023-03-16T23:28:32.690Z,3.39
2023-03-16T23:31:57.258Z,3.69
2023-03-16T23:35:27.443Z,3.49
2023-03-16T23:38:49.928Z,3.51
2023-03-16T23:42:14.029Z,3.41
2023-03-16T23:45:42.120Z,3.51
2023-03-16T23:49:20.174Z,3.48
2023-03-16T23:52:41.840Z,3.68
2023-03-16T23:56:03.428Z,3.55
2023-03-16T23:59:27.963Z,3.38
